createdAt,value
2017-09-05T00:01:07.292Z,4.90
2017-09-05T00:03:33.605Z,5.87
2017-09-05T00:05:59.995Z,4.90
2017-09-05T00:08:32.497Z,5.60
2017-09-05T00:10:58.983Z,4.93
2017-09-05T00:16:21.035Z,4.87
2017-09-05T00:18:48.324Z,5.60
2017-09-05T00:21:15.551Z,5.10
2017-09-05T00:23:41.956Z,5.00
2017-09-05T00:26:08.359Z,4.90
2017-09-05T00:28:34.715Z,5.27
2017-09-05T00:31:01.131Z,5.60
2017-09-05T00:33:27.497Z,5.27
2017-09-05T00:35:53.840Z,6.33
2017-09-05T00:38:20.160Z,5.73
2017-09-05T00:40:46.572Z,5.50
2017-09-05T00:43:12.952Z,5.53
2017-09-05T00:45:39.346Z,4.83
2017-09-05T00:48:05.718Z,5.67
2017-09-05T00:50:32.196Z,5.43
2017-09-05T00:52:58.555Z,5.70
2017-09-05T00:55:24.945Z,5.43
2017-09-05T00:57:51.306Z,5.50
2017-09-05T01:00:17.755Z,5.30
2017-09-05T01:02:44.079Z,5.90
2017-09-05T01:05:10.466Z,6.60
2017-09-05T01:07:36.878Z,6.77
2017-09-05T01:10:03.297Z,5.83
2017-09-05T01:12:29.716Z,6.13
2017-09-05T01:14:56.125Z,6.40
2017-09-05T01:17:22.587Z,6.00
2017-09-05T01:19:48.920Z,5.87
2017-09-05T01:22:15.278Z,6.30
2017-09-05T01:24:41.662Z,5.80
2017-09-05T01:27:08.034Z,5.17
2017-09-05T01:29:34.354Z,6.40
2017-09-05T01:32:00.721Z,6.60
2017-09-05T01:34:27.103Z,6.37
2017-09-05T01:36:53.480Z,7.67
2017-09-05T01:39:19.805Z,6.30
2017-09-05T01:41:46.164Z,7.97
2017-09-05T01:44:12.507Z,6.53
2017-09-05T01:46:38.859Z,7.40
2017-09-05T01:49:05.193Z,7.00
2017-09-05T01:51:31.605Z,7.37
2017-09-05T01:53:57.950Z,7.43
2017-09-05T01:56:24.288Z,7.10
2017-09-05T01:58:50.668Z,6.43
2017-09-05T02:01:17.032Z,8.87
2017-09-05T02:03:43.451Z,7.33
2017-09-05T02:06:09.797Z,7.47
2017-09-05T02:08:36.124Z,7.20
2017-09-05T02:11:02.527Z,7.27
2017-09-05T02:13:28.842Z,7.40
2017-09-05T02:15:55.156Z,7.83
2017-09-05T02:18:21.498Z,7.50
2017-09-05T02:20:47.871Z,7.93
2017-09-05T02:23:21.152Z,7.20
2017-09-05T02:25:47.461Z,6.20
2017-09-05T02:28:13.884Z,6.60
2017-09-05T02:30:40.218Z,7.00
2017-09-05T02:33:06.638Z,7.00
2017-09-05T02:35:32.966Z,6.90
2017-09-05T02:37:59.286Z,7.40
2017-09-05T02:40:25.646Z,7.40
2017-09-05T02:42:52.015Z,7.30
2017-09-05T02:45:18.410Z,7.03
2017-09-05T02:47:44.735Z,8.13
2017-09-05T02:50:11.132Z,7.87
2017-09-05T02:52:37.467Z,9.70
2017-09-05T02:55:03.805Z,7.00
2017-09-05T02:57:30.159Z,7.83
2017-09-05T02:59:56.510Z,7.63
2017-09-05T03:02:22.821Z,7.83
2017-09-05T03:04:49.139Z,7.73
2017-09-05T03:07:15.525Z,7.33
2017-09-05T03:09:41.841Z,8.43
2017-09-05T03:12:08.151Z,7.77
2017-09-05T03:14:34.498Z,7.60
2017-09-05T03:17:00.816Z,8.00
2017-09-05T03:19:27.210Z,7.30
2017-09-05T03:21:53.523Z,7.70
2017-09-05T03:24:19.879Z,7.63
2017-09-05T03:26:46.295Z,7.80
2017-09-05T03:29:12.647Z,7.80
2017-09-05T03:31:39.039Z,7.60
2017-09-05T03:34:05.404Z,9.30
2017-09-05T03:36:31.779Z,8.20
2017-09-05T03:38:58.105Z,8.20
2017-09-05T03:41:24.420Z,7.60
2017-09-05T03:43:50.761Z,8.93
2017-09-05T03:46:17.149Z,7.90
2017-09-05T03:48:43.560Z,8.30
2017-09-05T03:51:09.910Z,7.77
2017-09-05T03:53:36.270Z,8.10
2017-09-05T03:56:02.632Z,8.13
2017-09-05T03:58:29.034Z,6.93
2017-09-05T04:00:55.424Z,7.70
2017-09-05T04:03:21.760Z,8.10
2017-09-05T04:05:48.085Z,8.27
2017-09-05T04:08:14.460Z,7.80
2017-09-05T04:10:40.796Z,7.33
2017-09-05T04:13:07.218Z,8.70
2017-09-05T04:15:33.579Z,7.80
2017-09-05T04:17:59.903Z,7.67
2017-09-05T04:20:26.286Z,8.07
2017-09-05T04:22:52.657Z,7.27
2017-09-05T04:25:19.091Z,8.53
2017-09-05T04:27:45.562Z,9.77
2017-09-05T04:30:12.035Z,7.50
2017-09-05T04:32:38.439Z,7.80
2017-09-05T04:35:05.010Z,8.70
2017-09-05T04:37:31.365Z,7.20
2017-09-05T04:39:57.819Z,8.37
2017-09-05T04:42:24.141Z,8.63
2017-09-05T04:44:50.461Z,8.70
2017-09-05T04:47:16.813Z,9.00
2017-09-05T04:49:43.139Z,7.23
2017-09-05T04:52:09.593Z,8.60
2017-09-05T04:54:35.954Z,8.90
2017-09-05T04:57:02.511Z,8.47
2017-09-05T04:59:28.892Z,8.73
2017-09-05T05:01:55.225Z,8.70
2017-09-05T05:04:21.579Z,9.80
2017-09-05T05:06:47.926Z,7.83
2017-09-05T05:09:14.292Z,9.57
2017-09-05T05:11:40.626Z,9.37
2017-09-05T05:14:07.023Z,9.70
2017-09-05T05:16:33.422Z,9.27
2017-09-05T05:18:59.784Z,8.77
2017-09-05T05:21:26.134Z,9.37
2017-09-05T05:23:52.559Z,9.20
2017-09-05T05:26:18.976Z,10.63
2017-09-05T05:28:45.360Z,9.17
2017-09-05T05:31:11.684Z,8.73
2017-09-05T05:33:38.038Z,8.33
2017-09-05T05:36:04.398Z,11.53
2017-09-05T05:38:30.869Z,9.57
2017-09-05T05:40:57.294Z,8.17
2017-09-05T05:43:23.617Z,9.67
2017-09-05T05:45:50.059Z,9.60
2017-09-05T05:48:16.454Z,8.37
2017-09-05T05:50:42.983Z,8.50
2017-09-05T05:53:09.570Z,8.13
2017-09-05T05:55:35.941Z,9.13
2017-09-05T05:58:02.306Z,8.10
2017-09-05T06:00:28.708Z,9.17
2017-09-05T06:02:55.027Z,8.80
2017-09-05T06:05:21.392Z,10.07
2017-09-05T06:07:47.708Z,8.57
2017-09-05T06:10:14.025Z,9.60
2017-09-05T06:12:40.400Z,9.90
2017-09-05T06:15:06.714Z,11.53
2017-09-05T06:17:33.075Z,9.63
2017-09-05T06:19:59.448Z,11.30
2017-09-05T06:22:25.836Z,10.40
2017-09-05T06:24:52.224Z,11.07
2017-09-05T06:27:18.606Z,9.83
2017-09-05T06:29:44.992Z,13.23
2017-09-05T06:32:11.311Z,14.50
2017-09-05T06:34:37.707Z,9.93
2017-09-05T06:37:04.252Z,10.73
2017-09-05T06:39:30.967Z,11.63
2017-09-05T06:41:57.325Z,11.80
2017-09-05T06:44:23.636Z,11.33
2017-09-05T06:46:50.075Z,13.70
2017-09-05T06:49:16.470Z,14.73
2017-09-05T06:51:42.852Z,10.67
2017-09-05T06:54:09.171Z,12.50
2017-09-05T06:56:35.873Z,19.27
2017-09-05T06:59:02.554Z,9.50
2017-09-05T07:01:29.594Z,13.57
2017-09-05T07:03:56.164Z,10.03
2017-09-05T07:06:22.500Z,10.90
2017-09-05T07:08:48.850Z,14.57
2017-09-05T07:11:15.159Z,11.43
2017-09-05T07:13:41.509Z,9.70
2017-09-05T07:16:08.038Z,10.50
2017-09-05T07:18:34.427Z,9.90
2017-09-05T07:21:00.740Z,11.30
2017-09-05T07:23:27.123Z,8.70
2017-09-05T07:25:53.483Z,10.10
2017-09-05T07:28:19.831Z,8.63
2017-09-05T07:30:46.276Z,9.40
2017-09-05T07:33:12.675Z,8.03
2017-09-05T07:35:39.721Z,11.20
2017-09-05T07:38:06.154Z,8.60
2017-09-05T07:40:32.658Z,8.47
2017-09-05T07:42:59.073Z,13.47
2017-09-05T07:45:25.856Z,8.50
2017-09-05T07:47:52.331Z,7.70
2017-09-05T07:50:18.734Z,10.00
2017-09-05T07:52:45.059Z,9.53
2017-09-05T07:55:11.419Z,12.80
2017-09-05T07:57:37.784Z,12.40
2017-09-05T08:00:04.158Z,9.53
2017-09-05T08:02:30.519Z,7.23
2017-09-05T08:04:56.895Z,9.03
2017-09-05T08:07:23.236Z,10.40
2017-09-05T08:09:50.389Z,8.57
2017-09-05T08:12:16.748Z,13.20
2017-09-05T08:14:43.099Z,7.50
2017-09-05T08:17:09.510Z,7.50
2017-09-05T08:19:36.171Z,6.63
2017-09-05T08:22:02.590Z,7.20
2017-09-05T08:24:28.928Z,9.27
2017-09-05T08:26:56.197Z,6.63
2017-09-05T08:29:22.623Z,9.50
2017-09-05T08:31:49.059Z,6.10
2017-09-05T08:34:15.416Z,6.90
2017-09-05T08:36:41.794Z,8.80
2017-09-05T08:39:08.145Z,7.17
2017-09-05T08:41:34.538Z,5.90
2017-09-05T08:44:00.955Z,5.87
2017-09-05T08:46:27.303Z,6.23
2017-09-05T08:48:53.683Z,6.77
2017-09-05T08:51:20.009Z,8.53
2017-09-05T08:53:46.381Z,5.90
2017-09-05T08:56:12.705Z,5.60
2017-09-05T08:58:39.022Z,5.90
2017-09-05T09:01:05.392Z,5.33
2017-09-05T09:03:31.718Z,5.27
2017-09-05T09:05:58.094Z,5.90
2017-09-05T09:08:24.424Z,5.30
2017-09-05T09:10:50.750Z,4.83
2017-09-05T09:13:17.144Z,5.70
2017-09-05T09:15:43.547Z,5.40
2017-09-05T09:18:09.931Z,9.03
2017-09-05T09:20:36.271Z,5.73
2017-09-05T09:23:02.692Z,6.53
2017-09-05T09:25:29.071Z,7.23
2017-09-05T09:27:55.380Z,5.33
2017-09-05T09:30:21.692Z,4.87
2017-09-05T09:32:48.056Z,5.50
2017-09-05T09:35:14.386Z,5.83
2017-09-05T09:37:40.797Z,8.23
2017-09-05T09:40:07.131Z,4.40
2017-09-05T09:42:33.526Z,5.10
2017-09-05T09:44:59.922Z,4.50
2017-09-05T09:47:26.247Z,4.73
2017-09-05T09:49:52.708Z,3.50
2017-09-05T09:52:19.470Z,3.83
2017-09-05T09:54:45.816Z,5.03
2017-09-05T09:57:12.739Z,6.97
2017-09-05T09:59:39.261Z,3.73
2017-09-05T10:02:05.645Z,3.70
2017-09-05T10:04:32.023Z,4.40
2017-09-05T10:06:58.919Z,4.10
2017-09-05T10:09:25.932Z,4.53
2017-09-05T10:11:52.345Z,3.70
2017-09-05T10:14:18.741Z,5.67
2017-09-05T10:16:45.102Z,6.23
2017-09-05T10:19:11.449Z,4.70
2017-09-05T10:21:37.911Z,4.23
2017-09-05T10:24:04.243Z,5.50
2017-09-05T10:26:30.569Z,4.60
2017-09-05T10:28:57.639Z,3.73
2017-09-05T10:31:23.979Z,5.13
2017-09-05T10:33:50.359Z,4.63
2017-09-05T10:36:16.742Z,4.43
2017-09-05T10:38:43.120Z,4.60
2017-09-05T10:41:09.537Z,4.40
2017-09-05T10:43:35.929Z,6.03
2017-09-05T10:46:02.291Z,4.33
2017-09-05T10:48:28.683Z,5.87
2017-09-05T10:50:55.238Z,5.03
2017-09-05T10:53:21.677Z,3.73
2017-09-05T10:55:48.032Z,4.30
2017-09-05T10:58:14.357Z,3.40
2017-09-05T11:00:40.731Z,3.80
2017-09-05T11:03:07.068Z,4.37
2017-09-05T11:05:33.460Z,3.83
2017-09-05T11:07:59.839Z,4.23
2017-09-05T11:10:26.220Z,5.07
2017-09-05T11:12:52.607Z,4.10
2017-09-05T11:15:19.024Z,5.03
2017-09-05T11:17:45.407Z,5.30
2017-09-05T11:20:11.976Z,4.57
2017-09-05T11:22:38.875Z,5.40
2017-09-05T11:25:05.193Z,4.43
2017-09-05T11:27:31.566Z,4.17
2017-09-05T11:29:57.964Z,4.20
2017-09-05T11:32:24.336Z,3.90
2017-09-05T11:34:50.673Z,3.93
2017-09-05T11:37:17.078Z,4.97
2017-09-05T11:39:43.461Z,4.33
2017-09-05T11:42:09.880Z,4.67
2017-09-05T11:44:36.351Z,4.03
2017-09-05T11:47:02.731Z,4.30
2017-09-05T11:49:29.045Z,4.40
2017-09-05T11:51:55.543Z,5.17
2017-09-05T11:54:21.864Z,4.07
2017-09-05T11:56:48.237Z,4.80
2017-09-05T11:59:14.657Z,4.00
2017-09-05T12:01:41.071Z,3.87
2017-09-05T12:04:07.419Z,3.50
2017-09-05T12:06:33.748Z,3.67
2017-09-05T12:09:00.154Z,3.90
2017-09-05T12:11:26.480Z,4.20
2017-09-05T12:13:52.965Z,4.10
2017-09-05T12:16:19.349Z,4.53
2017-09-05T12:18:45.726Z,4.10
2017-09-05T12:21:12.167Z,3.87
2017-09-05T12:23:38.501Z,4.20
2017-09-05T12:26:04.890Z,3.87
2017-09-05T12:28:31.228Z,4.23
2017-09-05T12:30:58.056Z,4.73
2017-09-05T12:33:24.572Z,4.90
2017-09-05T12:35:50.928Z,3.50
2017-09-05T12:38:17.372Z,4.67
2017-09-05T12:40:43.742Z,5.80
2017-09-05T12:43:10.190Z,3.33
2017-09-05T12:45:36.568Z,2.90
2017-09-05T12:48:02.913Z,3.33
2017-09-05T12:50:29.335Z,3.57
2017-09-05T12:52:55.707Z,3.73
2017-09-05T12:55:22.083Z,3.30
2017-09-05T12:57:48.452Z,3.50
2017-09-05T13:00:14.840Z,3.83
2017-09-05T13:02:41.213Z,4.90
2017-09-05T13:05:07.552Z,3.50
2017-09-05T13:07:33.903Z,3.00
2017-09-05T13:10:00.275Z,5.83
2017-09-05T13:12:26.645Z,4.70
2017-09-05T13:14:52.968Z,3.73
2017-09-05T13:17:19.334Z,2.93
2017-09-05T13:19:45.666Z,3.60
2017-09-05T13:22:12.039Z,4.50
2017-09-05T13:24:38.407Z,2.90
2017-09-05T13:27:04.776Z,3.27
2017-09-05T13:29:31.138Z,2.60
2017-09-05T13:31:57.531Z,2.93
2017-09-05T13:34:23.891Z,3.70
2017-09-05T13:36:50.250Z,2.57
2017-09-05T13:39:16.589Z,2.30
2017-09-05T13:41:42.960Z,4.57
2017-09-05T13:44:09.419Z,2.03
2017-09-05T13:46:35.743Z,1.83
2017-09-05T13:49:02.113Z,2.00
2017-09-05T13:51:28.463Z,1.87
2017-09-05T13:53:54.785Z,1.97
2017-09-05T13:56:21.149Z,1.77
2017-09-05T13:58:47.473Z,2.73
2017-09-05T14:01:13.838Z,2.13
2017-09-05T14:03:40.229Z,3.20
2017-09-05T14:06:06.593Z,2.00
2017-09-05T14:08:33.031Z,3.57
2017-09-05T14:10:59.350Z,1.23
2017-09-05T14:13:25.674Z,1.60
2017-09-05T14:15:52.315Z,1.10
2017-09-05T14:18:18.633Z,1.50
2017-09-05T14:20:44.989Z,3.60
2017-09-05T14:23:11.397Z,1.40
2017-09-05T14:25:37.806Z,1.20
2017-09-05T14:28:04.146Z,1.87
2017-09-05T14:30:30.509Z,1.50
2017-09-05T14:32:56.971Z,1.23
2017-09-05T14:35:23.294Z,1.30
2017-09-05T14:37:49.652Z,1.60
2017-09-05T14:40:16.246Z,1.93
2017-09-05T14:42:42.564Z,2.00
2017-09-05T14:45:08.926Z,1.53
2017-09-05T14:47:35.535Z,1.50
2017-09-05T14:50:01.896Z,1.70
2017-09-05T14:52:28.237Z,1.80
2017-09-05T14:54:54.604Z,1.40
2017-09-05T14:57:20.927Z,1.27
2017-09-05T14:59:47.286Z,2.93
2017-09-05T15:02:13.608Z,1.33
2017-09-05T15:04:40.118Z,1.70
2017-09-05T15:07:06.460Z,1.60
2017-09-05T15:09:39.651Z,1.90
2017-09-05T15:12:05.996Z,1.67
2017-09-05T15:14:32.381Z,2.20
2017-09-05T15:16:58.747Z,1.87
2017-09-05T15:19:25.155Z,1.70
2017-09-05T15:21:51.518Z,3.57
2017-09-05T15:24:17.934Z,1.87
2017-09-05T15:26:44.260Z,3.10
2017-09-05T15:29:10.576Z,2.40
2017-09-05T15:31:36.998Z,1.80
2017-09-05T15:34:03.319Z,1.70
2017-09-05T15:36:29.708Z,4.00
2017-09-05T15:38:56.037Z,2.30
2017-09-05T15:41:22.363Z,2.20
2017-09-05T15:43:48.842Z,2.40
2017-09-05T15:46:15.197Z,1.97
2017-09-05T15:48:41.551Z,5.17
2017-09-05T15:51:07.971Z,3.47
2017-09-05T15:56:07.588Z,2.03
2017-09-05T15:58:33.940Z,2.10
2017-09-05T16:01:00.316Z,2.13
2017-09-05T16:03:26.700Z,4.70
2017-09-05T16:05:53.291Z,2.43
2017-09-05T16:08:19.677Z,2.57
2017-09-05T16:10:46.098Z,3.23
2017-09-05T16:13:12.534Z,2.70
2017-09-05T16:15:38.916Z,2.43
2017-09-05T16:18:05.296Z,3.83
2017-09-05T16:20:31.628Z,2.40
2017-09-05T16:22:57.955Z,4.20
2017-09-05T16:25:24.366Z,2.40
2017-09-05T16:27:50.695Z,2.90
2017-09-05T16:30:17.029Z,2.83
2017-09-05T16:32:43.591Z,7.23
2017-09-05T16:35:09.940Z,5.50
2017-09-05T16:37:36.319Z,4.17
2017-09-05T16:40:02.756Z,3.43
2017-09-05T16:42:29.109Z,3.33
2017-09-05T16:44:55.501Z,3.60
2017-09-05T16:47:21.924Z,4.50
2017-09-05T16:49:48.337Z,3.60
2017-09-05T16:52:14.805Z,3.27
2017-09-05T16:54:41.133Z,3.70
2017-09-05T16:57:07.556Z,5.63
2017-09-05T16:59:34.021Z,3.10
2017-09-05T17:02:00.423Z,3.53
2017-09-05T17:04:27.016Z,3.17
2017-09-05T17:06:53.472Z,4.53
2017-09-05T17:09:20.006Z,3.80
2017-09-05T17:11:46.474Z,3.50
2017-09-05T17:14:12.983Z,3.20
2017-09-05T17:16:39.551Z,3.20
2017-09-05T17:19:05.968Z,3.47
2017-09-05T17:21:32.414Z,3.10
2017-09-05T17:23:58.988Z,5.43
2017-09-05T17:26:25.396Z,3.00
2017-09-05T17:28:51.864Z,3.07
2017-09-05T17:31:18.349Z,2.93
2017-09-05T17:33:44.749Z,3.20
2017-09-05T17:36:11.147Z,3.00
2017-09-05T17:38:37.507Z,2.67
2017-09-05T17:41:04.039Z,2.87
2017-09-05T17:43:30.622Z,2.60
2017-09-05T17:45:57.163Z,3.20
2017-09-05T17:48:23.632Z,3.30
2017-09-05T17:50:50.077Z,2.83
2017-09-05T17:53:16.496Z,3.70
2017-09-05T17:55:42.880Z,3.73
2017-09-05T17:58:09.310Z,3.87
2017-09-05T18:00:35.651Z,4.30
2017-09-05T18:03:02.071Z,3.17
2017-09-05T18:05:28.591Z,4.10
2017-09-05T18:07:55.229Z,3.63
2017-09-05T18:10:21.749Z,3.53
2017-09-05T18:12:48.319Z,3.63
2017-09-05T18:15:14.775Z,3.10
2017-09-05T18:17:41.199Z,3.77
2017-09-05T18:20:07.526Z,5.17
2017-09-05T18:22:34.140Z,3.50
2017-09-05T18:25:00.694Z,3.30
2017-09-05T18:27:27.250Z,3.20
2017-09-05T18:29:53.655Z,3.47
2017-09-05T18:32:20.142Z,5.70
2017-09-05T18:34:46.576Z,5.10
2017-09-05T18:37:13.056Z,3.50
2017-09-05T18:39:39.483Z,3.40
2017-09-05T18:42:05.930Z,3.30
2017-09-05T18:44:32.396Z,4.10
2017-09-05T18:46:58.755Z,3.73
2017-09-05T18:49:25.105Z,2.90
2017-09-05T18:51:51.569Z,6.10
2017-09-05T18:54:18.077Z,2.83
2017-09-05T18:56:44.466Z,3.90
2017-09-05T18:59:11.015Z,4.10
2017-09-05T19:01:37.380Z,3.50
2017-09-05T19:04:03.944Z,3.33
2017-09-05T19:06:30.573Z,3.77
2017-09-05T19:08:57.150Z,3.30
2017-09-05T19:11:23.671Z,3.73
2017-09-05T19:13:50.072Z,4.07
2017-09-05T19:16:16.591Z,3.67
2017-09-05T19:18:43.057Z,4.60
2017-09-05T19:21:09.620Z,3.77
2017-09-05T19:23:36.021Z,3.20
2017-09-05T19:26:02.413Z,3.47
2017-09-05T19:28:28.989Z,3.40
2017-09-05T19:30:55.371Z,3.93
2017-09-05T19:33:21.974Z,3.80
2017-09-05T19:35:48.482Z,4.13
2017-09-05T19:38:14.913Z,3.43
2017-09-05T19:40:41.408Z,3.77
2017-09-05T19:43:07.894Z,3.80
2017-09-05T19:45:34.288Z,5.20
2017-09-05T19:48:00.710Z,5.50
2017-09-05T19:50:27.151Z,3.70
2017-09-05T19:52:53.583Z,3.80
2017-09-05T19:55:20.020Z,6.17
2017-09-05T19:57:46.419Z,4.30
2017-09-05T20:00:12.929Z,5.00
2017-09-05T20:02:39.524Z,3.80
2017-09-05T20:05:05.904Z,3.80
2017-09-05T20:07:32.355Z,3.77
2017-09-05T20:09:58.745Z,3.70
2017-09-05T20:12:25.480Z,5.17
2017-09-05T20:14:52.153Z,3.87
2017-09-05T20:17:18.826Z,5.77
2017-09-05T20:19:45.289Z,4.83
2017-09-05T20:22:11.951Z,4.07
2017-09-05T20:24:38.803Z,3.97
2017-09-05T20:27:05.256Z,4.80
2017-09-05T20:29:32.010Z,4.23
2017-09-05T20:31:58.705Z,5.10
2017-09-05T20:34:25.401Z,3.83
2017-09-05T20:36:51.979Z,4.93
2017-09-05T20:39:18.653Z,4.50
2017-09-05T20:41:45.384Z,3.70
2017-09-05T20:44:11.965Z,3.70
2017-09-05T20:46:38.614Z,3.40
2017-09-05T20:49:05.118Z,4.07
2017-09-05T20:51:31.701Z,5.33
2017-09-05T20:53:58.242Z,5.30
2017-09-05T20:56:24.968Z,4.30
2017-09-05T20:58:51.475Z,5.43
2017-09-05T21:01:18.058Z,3.90
2017-09-05T21:03:45.625Z,3.73
2017-09-05T21:06:12.066Z,3.97
2017-09-05T21:08:38.607Z,4.07
2017-09-05T21:11:05.197Z,4.10
2017-09-05T21:13:31.831Z,4.03
2017-09-05T21:15:58.419Z,4.93
2017-09-05T21:18:24.848Z,3.57
2017-09-05T21:20:51.289Z,7.13
2017-09-05T21:23:17.874Z,5.90
2017-09-05T21:25:44.630Z,4.13
2017-09-05T21:28:11.247Z,5.60
2017-09-05T21:30:37.805Z,4.30
2017-09-05T21:33:04.395Z,6.43
2017-09-05T21:35:31.052Z,3.50
2017-09-05T21:37:57.645Z,5.40
2017-09-05T21:40:24.276Z,6.13
2017-09-05T21:42:50.959Z,4.60
2017-09-05T21:45:17.387Z,4.47
2017-09-05T21:47:43.781Z,4.17
2017-09-05T21:50:10.152Z,4.10
2017-09-05T21:52:36.887Z,3.90
2017-09-05T21:55:03.287Z,4.00
2017-09-05T21:57:29.738Z,3.57
2017-09-05T21:59:56.138Z,3.40
2017-09-05T22:02:22.505Z,7.40
2017-09-05T22:04:48.927Z,3.60
2017-09-05T22:07:15.352Z,4.03
2017-09-05T22:09:41.684Z,8.27
2017-09-05T22:12:08.071Z,4.90
2017-09-05T22:14:40.434Z,3.90
2017-09-05T22:17:06.831Z,3.77
2017-09-05T22:19:39.097Z,3.43
2017-09-05T22:22:05.480Z,4.47
2017-09-05T22:24:37.923Z,4.00
2017-09-05T22:27:10.386Z,4.03
2017-09-05T22:29:36.783Z,3.50
2017-09-05T22:32:03.136Z,4.97
2017-09-05T22:34:29.484Z,3.80
2017-09-05T22:36:55.851Z,3.60
2017-09-05T22:39:22.203Z,3.07
2017-09-05T22:41:48.572Z,4.20
2017-09-05T22:44:14.920Z,3.90
2017-09-05T22:46:41.289Z,3.07
2017-09-05T22:49:07.649Z,3.30
2017-09-05T22:51:34.036Z,2.73
2017-09-05T22:54:00.352Z,2.60
2017-09-05T22:56:26.679Z,3.73
2017-09-05T22:58:53.082Z,2.40
2017-09-05T23:01:19.480Z,2.40
2017-09-05T23:03:45.825Z,2.20
2017-09-05T23:06:12.173Z,2.37
2017-09-05T23:08:38.551Z,2.30
2017-09-05T23:11:04.924Z,1.93
2017-09-05T23:13:31.272Z,2.30
2017-09-05T23:15:57.636Z,2.10
2017-09-05T23:18:24.104Z,3.90
2017-09-05T23:20:50.455Z,1.93
2017-09-05T23:23:16.771Z,2.30
2017-09-05T23:25:43.198Z,4.17
2017-09-05T23:28:09.513Z,2.20
2017-09-05T23:30:35.888Z,2.33
2017-09-05T23:33:02.315Z,2.47
2017-09-05T23:35:28.676Z,2.40
2017-09-05T23:37:55.079Z,2.50
2017-09-05T23:40:21.412Z,2.10
2017-09-05T23:42:47.800Z,2.30
2017-09-05T23:45:14.115Z,1.90
2017-09-05T23:47:40.433Z,2.50
2017-09-05T23:50:06.767Z,1.97
2017-09-05T23:52:33.087Z,2.40
2017-09-05T23:54:59.451Z,2.07
2017-09-05T23:57:25.907Z,2.17
2017-09-05T23:59:52.220Z,2.10
